Time;durP1;ratioP1;P1;durP2;ratioP2;P2;SDS_P1;SDS_P2;PMS_P1;PMS_P2;Temp;Humidity;BMP_temperature;BMP_pressure;BME280_temperature;BME280_humidity;BME280_pressure;Samples;Min_cycle;Max_cycle;Signal;HPM_P1;HPM_P2
2024/04/03 00:00:42;;;;;;;6.88;4.32;;;7.20;99.90;;;;;;4898482;29;20040;-74
2024/04/03 00:03:07;;;;;;;8.63;4.47;;;7.20;99.90;;;;;;4892324;29;20043;-74
2024/04/03 00:05:33;;;;;;;8.93;4.20;;;7.20;99.90;;;;;;4898368;29;20020;-74
2024/04/03 00:07:59;;;;;;;7.93;4.07;;;7.30;99.90;;;;;;4898159;29;20084;-74
2024/04/03 00:10:25;;;;;;;4.78;3.10;;;7.30;99.90;;;;;;4897742;29;20112;-73
2024/04/03 00:12:50;;;;;;;6.68;4.10;;;7.30;99.90;;;;;;4896782;29;20072;-74
2024/04/03 00:15:16;;;;;;;7.40;3.58;;;7.30;99.90;;;;;;4897200;29;20033;-74
2024/04/03 00:17:42;;;;;;;7.72;3.80;;;7.30;99.90;;;;;;4898049;29;20067;-74
2024/04/03 00:20:09;;;;;;;5.60;3.33;;;7.40;99.90;;;;;;4898425;29;20088;-74
2024/04/03 00:22:35;;;;;;;6.45;3.45;;;7.40;99.90;;;;;;4896912;29;20041;-74
2024/04/03 00:25:01;;;;;;;6.35;3.45;;;7.40;99.90;;;;;;4893408;29;20119;-74
2024/04/03 00:27:26;;;;;;;6.25;3.28;;;7.50;99.90;;;;;;4898254;29;20123;-74
2024/04/03 00:29:52;;;;;;;4.32;2.63;;;7.50;99.90;;;;;;4897247;29;20060;-74
2024/04/03 00:32:18;;;;;;;4.63;3.40;;;7.50;99.90;;;;;;4897834;29;20056;-74
2024/04/03 00:34:43;;;;;;;5.28;2.88;;;7.50;99.90;;;;;;4897728;29;20020;-75
2024/04/03 00:37:09;;;;;;;4.88;2.80;;;7.60;99.90;;;;;;4898364;29;20107;-74
2024/04/03 00:39:34;;;;;;;4.63;3.17;;;7.60;99.90;;;;;;4896391;29;20116;-74
2024/04/03 00:42:01;;;;;;;10.05;5.57;;;7.60;99.90;;;;;;4897750;29;20051;-74
2024/04/03 00:44:27;;;;;;;3.72;2.80;;;7.60;99.90;;;;;;4897235;29;20037;-74
2024/04/03 00:46:53;;;;;;;6.70;3.53;;;7.60;99.90;;;;;;4897343;29;20479;-74
2024/04/03 00:49:20;;;;;;;3.13;2.38;;;7.70;99.90;;;;;;4897896;29;20028;-74
2024/04/03 00:51:49;;;;;;;4.22;2.90;;;7.70;99.90;;;;;;4897803;29;20085;-75
2024/04/03 00:54:17;;;;;;;4.50;2.42;;;7.70;99.90;;;;;;4895880;29;20033;-75
2024/04/03 00:56:44;;;;;;;4.60;2.80;;;7.70;99.90;;;;;;4896098;29;20060;-74
2024/04/03 00:59:10;;;;;;;4.47;3.38;;;7.80;99.90;;;;;;4894514;29;20103;-75
2024/04/03 01:01:35;;;;;;;6.22;2.70;;;7.80;99.90;;;;;;4898052;29;20165;-75
2024/04/03 01:04:01;;;;;;;6.03;3.05;;;7.80;99.90;;;;;;4895625;29;20056;-74
2024/04/03 01:13:10;;;;;;;3.85;2.60;;;7.70;99.90;;;;;;4897224;29;20051;-74
2024/04/03 01:15:36;;;;;;;6.00;3.28;;;7.70;99.90;;;;;;4897101;29;20040;-75
2024/04/03 01:18:02;;;;;;;7.90;2.72;;;7.70;99.90;;;;;;4895588;29;20037;-75
2024/04/03 01:20:27;;;;;;;7.95;4.97;;;7.70;99.90;;;;;;4896619;29;20033;-75
2024/04/03 01:22:53;;;;;;;7.82;3.45;;;7.70;99.90;;;;;;4895939;29;20029;-75
2024/04/03 01:25:19;;;;;;;8.77;3.97;;;7.70;99.90;;;;;;4897244;29;20497;-75
2024/04/03 01:27:44;;;;;;;7.35;3.67;;;7.70;99.90;;;;;;4903529;29;20048;-74
2024/04/03 01:30:10;;;;;;;8.70;4.00;;;7.70;99.90;;;;;;4895312;29;20076;-75
2024/04/03 01:32:37;;;;;;;11.43;3.80;;;7.70;99.90;;;;;;4896698;29;20063;-74
2024/04/03 01:35:02;;;;;;;11.27;4.30;;;7.70;99.90;;;;;;4896811;29;20029;-74
2024/04/03 01:37:28;;;;;;;8.30;4.07;;;7.70;99.90;;;;;;4883544;29;20508;-74
2024/04/03 01:39:54;;;;;;;8.02;4.05;;;7.70;99.90;;;;;;4897001;29;20033;-74
2024/04/03 01:42:20;;;;;;;6.03;3.55;;;7.70;99.90;;;;;;4894495;29;20128;-74
2024/04/03 01:44:48;;;;;;;8.90;3.65;;;7.70;99.90;;;;;;4896942;29;20498;-74
2024/04/03 01:47:14;;;;;;;7.68;3.58;;;7.70;99.90;;;;;;4896520;29;20035;-74
2024/04/03 01:49:39;;;;;;;6.80;2.92;;;7.70;99.90;;;;;;4897216;29;20025;-73
2024/04/03 01:52:05;;;;;;;6.82;3.38;;;7.70;99.90;;;;;;4896898;29;20029;-74
2024/04/03 01:54:31;;;;;;;4.32;3.25;;;7.70;99.90;;;;;;4896694;29;20028;-74
2024/04/03 01:56:57;;;;;;;5.75;2.75;;;7.70;99.90;;;;;;4896551;29;20127;-74
2024/04/03 01:59:22;;;;;;;6.18;2.95;;;7.70;99.90;;;;;;4895497;29;20024;-75
2024/04/03 02:01:48;;;;;;;4.78;3.05;;;7.70;99.90;;;;;;4896569;29;20482;-74
2024/04/03 02:04:14;;;;;;;4.82;2.60;;;7.70;99.90;;;;;;4897246;29;20032;-74
2024/04/03 02:06:40;;;;;;;4.45;3.63;;;7.70;99.90;;;;;;4896302;29;20115;-74
2024/04/03 02:09:06;;;;;;;5.28;3.05;;;7.60;99.90;;;;;;4896796;29;20097;-74
2024/04/03 02:11:31;;;;;;;7.03;3.75;;;7.70;99.90;;;;;;4896232;29;20024;-74
2024/04/03 02:13:58;;;;;;;5.07;3.40;;;7.70;99.90;;;;;;4896755;29;20088;-74
2024/04/03 02:16:24;;;;;;;8.43;3.33;;;7.70;99.90;;;;;;4895340;29;20041;-74
2024/04/03 02:18:50;;;;;;;10.18;3.15;;;7.70;99.90;;;;;;4896669;29;20040;-74
2024/04/03 02:21:16;;;;;;;5.93;2.78;;;7.60;99.90;;;;;;4894970;29;20163;-73
2024/04/03 02:23:41;;;;;;;4.60;2.58;;;7.70;99.90;;;;;;4896584;29;20025;-74
2024/04/03 02:26:07;;;;;;;4.93;2.75;;;7.70;99.90;;;;;;4896318;29;20467;-74
2024/04/03 02:28:32;;;;;;;7.50;3.20;;;7.70;99.90;;;;;;4896945;29;20048;-74
2024/04/03 02:31:04;;;;;;;8.70;2.72;;;7.70;99.90;;;;;;4896094;29;20068;-74
2024/04/03 02:33:29;;;;;;;4.55;2.15;;;7.70;99.90;;;;;;4896878;29;20060;-74
2024/04/03 02:35:55;;;;;;;3.88;1.90;;;7.70;99.90;;;;;;4895104;29;20033;-74
2024/04/03 02:38:21;;;;;;;4.53;2.17;;;7.60;99.90;;;;;;4896469;29;20031;-74
2024/04/03 02:40:46;;;;;;;5.60;2.00;;;7.60;99.90;;;;;;4894849;29;20024;-74
2024/04/03 02:43:12;;;;;;;2.58;2.20;;;7.60;99.90;;;;;;4895516;29;20025;-74
2024/04/03 02:45:38;;;;;;;5.85;3.03;;;7.60;99.90;;;;;;4896092;29;20036;-74
2024/04/03 02:48:04;;;;;;;2.42;2.15;;;7.70;99.90;;;;;;4896166;29;20491;-75
2024/04/03 02:50:30;;;;;;;4.85;2.58;;;7.60;99.90;;;;;;4894706;29;20041;-75
2024/04/03 02:52:55;;;;;;;5.00;2.92;;;7.60;99.90;;;;;;4897041;29;20033;-74
2024/04/03 02:55:21;;;;;;;3.92;2.60;;;7.60;99.90;;;;;;4898661;29;20024;-74
2024/04/03 02:57:46;;;;;;;3.47;2.47;;;7.70;99.90;;;;;;4899846;29;20035;-74
2024/04/03 03:00:13;;;;;;;4.55;2.10;;;7.60;99.90;;;;;;4898010;29;20032;-75
2024/04/03 03:02:38;;;;;;;4.95;2.03;;;7.60;99.90;;;;;;4899517;29;20120;-75
2024/04/03 03:05:04;;;;;;;2.22;2.03;;;7.70;99.90;;;;;;4898140;29;20085;-74
2024/04/03 03:07:30;;;;;;;2.30;2.03;;;7.70;99.90;;;;;;4898617;29;20032;-74
2024/04/03 03:09:56;;;;;;;4.45;2.40;;;7.70;99.90;;;;;;4898069;29;20806;-74
2024/04/03 03:12:21;;;;;;;2.17;2.00;;;7.60;99.90;;;;;;4899474;29;20124;-75
2024/04/03 03:14:47;;;;;;;3.50;2.33;;;7.60;99.90;;;;;;4899263;29;20035;-75
2024/04/03 03:17:12;;;;;;;5.70;2.15;;;7.60;99.90;;;;;;4899529;29;20025;-75
2024/04/03 03:19:38;;;;;;;3.20;2.28;;;7.50;99.90;;;;;;4899535;29;20610;-75
2024/04/03 03:22:04;;;;;;;3.75;2.10;;;7.50;99.90;;;;;;4899685;29;20517;-75
2024/04/03 03:24:29;;;;;;;3.78;2.10;;;7.50;99.90;;;;;;4899067;29;20127;-75
2024/04/03 03:26:55;;;;;;;2.42;1.98;;;7.50;99.90;;;;;;4899229;29;20043;-74
2024/04/03 03:29:21;;;;;;;2.35;2.13;;;7.40;99.90;;;;;;4898977;29;20486;-74
2024/04/03 03:31:47;;;;;;;3.08;2.03;;;7.40;99.90;;;;;;4897761;29;20090;-74
2024/04/03 03:34:13;;;;;;;2.35;1.65;;;7.40;99.90;;;;;;4899409;29;20123;-74
2024/04/03 03:36:39;;;;;;;5.00;2.05;;;7.40;99.90;;;;;;4899135;29;20127;-75
2024/04/03 03:39:04;;;;;;;5.40;2.45;;;7.40;99.90;;;;;;4898779;29;20036;-74
2024/04/03 03:41:30;;;;;;;2.75;2.28;;;7.30;99.90;;;;;;4898861;29;20050;-75
2024/04/03 03:43:56;;;;;;;3.45;2.15;;;7.30;99.90;;;;;;4897719;29;20072;-74
2024/04/03 03:46:21;;;;;;;5.57;1.98;;;7.30;99.90;;;;;;4897977;29;20025;-74
2024/04/03 03:54:16;;;;;;;4.93;2.20;;;7.20;99.90;;;;;;4898956;29;20088;-74
2024/04/03 03:56:41;;;;;;;3.75;1.77;;;7.20;99.90;;;;;;4898375;29;20442;-74
2024/04/03 03:59:07;;;;;;;3.17;1.88;;;7.20;99.90;;;;;;4898742;29;20037;-74
2024/04/03 04:01:33;;;;;;;5.63;2.20;;;7.10;99.90;;;;;;4898839;29;20111;-74
2024/04/03 04:03:58;;;;;;;3.17;2.22;;;7.10;99.90;;;;;;4898289;29;20140;-74
2024/04/03 04:06:24;;;;;;;2.40;2.10;;;7.10;99.90;;;;;;4896387;29;20025;-75
2024/04/03 04:08:49;;;;;;;3.90;1.73;;;7.00;99.90;;;;;;4896349;29;20052;-75
2024/04/03 04:11:15;;;;;;;5.50;2.05;;;7.00;99.90;;;;;;4897961;29;20039;-74
2024/04/03 04:13:41;;;;;;;3.13;2.30;;;7.10;99.90;;;;;;4897398;29;20024;-74
2024/04/03 04:16:06;;;;;;;2.47;2.10;;;7.00;99.90;;;;;;4896730;29;20068;-74
2024/04/03 04:18:32;;;;;;;3.75;2.38;;;7.10;99.90;;;;;;4898423;29;20028;-74
2024/04/03 04:20:58;;;;;;;4.85;2.42;;;7.10;99.90;;;;;;4898042;29;20088;-74
2024/04/03 04:23:24;;;;;;;4.68;2.25;;;7.20;99.90;;;;;;4897715;29;20024;-74
2024/04/03 04:26:01;;;;;;;5.55;2.60;;;7.10;99.90;;;;;;4897917;29;20096;-76
2024/04/03 04:28:30;;;;;;;4.72;2.28;;;7.10;99.90;;;;;;4898536;29;20031;-75
2024/04/03 04:31:00;;;;;;;3.15;1.92;;;7.20;99.90;;;;;;4897803;29;20116;-75
2024/04/03 04:33:32;;;;;;;5.20;2.58;;;7.20;99.90;;;;;;4896620;29;20088;-74
2024/04/03 04:35:58;;;;;;;6.40;2.25;;;7.30;99.90;;;;;;4896649;29;20211;-76
2024/04/03 04:38:26;;;;;;;2.65;2.10;;;7.20;99.90;;;;;;4897675;29;20390;-76
2024/04/03 04:41:00;;;;;;;2.38;2.08;;;7.30;99.90;;;;;;4897296;29;20486;-75
2024/04/03 04:43:30;;;;;;;4.43;2.33;;;7.30;99.90;;;;;;4897991;29;20032;-75
2024/04/03 04:46:01;;;;;;;4.97;2.50;;;7.30;99.90;;;;;;4896532;29;20084;-75
2024/04/03 04:48:29;;;;;;;3.67;2.17;;;7.40;99.90;;;;;;4897482;29;20089;-76
2024/04/03 04:51:00;;;;;;;3.22;2.10;;;7.40;99.90;;;;;;4897891;29;20033;-76
2024/04/03 04:53:26;;;;;;;3.95;2.20;;;7.40;99.90;;;;;;4897366;29;20043;-76
2024/04/03 04:56:08;;;;;;;5.28;2.13;;;7.40;99.90;;;;;;4896451;29;20145;-76
2024/04/03 04:58:33;;;;;;;3.50;2.20;;;7.40;99.90;;;;;;4897860;29;20025;-76
2024/04/03 05:01:09;;;;;;;4.40;2.63;;;7.50;99.90;;;;;;4897417;29;20136;-75
2024/04/03 05:03:36;;;;;;;2.55;1.90;;;7.40;99.90;;;;;;4897245;29;20029;-75
2024/04/03 05:06:03;;;;;;;5.00;2.35;;;7.50;99.90;;;;;;4897594;29;20399;-74
2024/04/03 05:08:30;;;;;;;3.17;1.90;;;7.50;99.90;;;;;;4896704;29;20120;-75
2024/04/03 05:10:57;;;;;;;5.18;2.58;;;7.50;99.90;;;;;;4897063;29;20063;-74
2024/04/03 05:13:33;;;;;;;3.88;2.15;;;7.60;99.90;;;;;;4897434;29;20040;-75
2024/04/03 05:16:05;;;;;;;4.78;2.25;;;7.60;99.90;;;;;;4896941;29;20521;-74
2024/04/03 05:18:30;;;;;;;3.50;1.90;;;7.60;99.90;;;;;;4897297;29;20039;-75
2024/04/03 05:20:56;;;;;;;8.32;2.03;;;7.60;99.90;;;;;;4896956;29;20040;-74
2024/04/03 05:23:21;;;;;;;4.50;2.10;;;7.70;99.90;;;;;;4897105;29;20040;-74
2024/04/03 05:25:59;;;;;;;2.83;1.83;;;7.70;99.90;;;;;;4895833;29;20505;-74
2024/04/03 05:28:25;;;;;;;3.40;2.08;;;7.80;99.90;;;;;;4897583;29;20020;-74
2024/04/03 05:30:52;;;;;;;2.30;1.75;;;7.80;99.90;;;;;;4895253;29;20045;-74
2024/04/03 05:33:19;;;;;;;2.72;1.70;;;7.90;99.90;;;;;;4895617;29;20055;-74
2024/04/03 05:35:55;;;;;;;5.22;2.17;;;7.90;99.90;;;;;;4896119;29;20096;-74
2024/04/03 05:38:21;;;;;;;3.22;2.00;;;8.00;99.90;;;;;;4884384;29;20036;-75
2024/04/03 05:40:51;;;;;;;2.83;1.58;;;8.00;99.90;;;;;;4893161;29;20031;-73
2024/04/03 05:43:17;;;;;;;2.80;2.08;;;8.00;99.90;;;;;;4897137;29;20588;-74
2024/04/03 05:45:42;;;;;;;3.28;2.35;;;8.00;99.90;;;;;;4896115;29;20037;-75
2024/04/03 05:48:08;;;;;;;5.65;2.20;;;8.00;99.90;;;;;;4894841;29;20040;-75
2024/04/03 05:50:35;;;;;;;7.28;2.65;;;8.00;99.90;;;;;;4894659;29;20029;-74
2024/04/03 05:53:01;;;;;;;5.25;2.53;;;8.00;99.90;;;;;;4894993;29;20497;-74
2024/04/03 05:55:26;;;;;;;5.72;2.40;;;8.00;99.90;;;;;;4892791;29;20115;-74
2024/04/03 05:57:52;;;;;;;4.20;2.38;;;8.00;99.90;;;;;;4896075;29;20037;-73
2024/04/03 06:00:17;;;;;;;7.72;3.63;;;8.00;99.90;;;;;;4895034;29;20025;-73
2024/04/03 06:02:43;;;;;;;3.33;2.33;;;8.10;99.90;;;;;;4895337;29;20072;-74
2024/04/03 06:05:09;;;;;;;4.07;2.15;;;8.20;99.90;;;;;;4895220;29;20025;-75
2024/04/03 06:07:35;;;;;;;7.75;2.70;;;8.20;99.90;;;;;;4896473;29;20036;-74
2024/04/03 06:10:01;;;;;;;4.70;2.28;;;8.30;99.90;;;;;;4894689;29;20032;-73
2024/04/03 06:12:27;;;;;;;4.45;3.10;;;8.40;99.90;;;;;;4896765;29;20432;-74
2024/04/03 06:14:53;;;;;;;7.85;2.50;;;8.40;99.90;;;;;;4893034;29;20143;-74
2024/04/03 06:17:19;;;;;;;4.95;2.10;;;8.40;99.90;;;;;;4895299;29;20036;-73
2024/04/03 06:19:45;;;;;;;6.15;3.40;;;8.40;99.90;;;;;;4884833;29;20391;-74
2024/04/03 06:22:11;;;;;;;5.43;2.70;;;8.40;99.90;;;;;;4890402;29;20069;-73
2024/04/03 06:24:36;;;;;;;6.53;2.50;;;8.40;99.90;;;;;;4894787;29;20060;-73
2024/04/03 06:27:03;;;;;;;3.75;2.22;;;8.40;99.90;;;;;;4886776;29;20154;-73
2024/04/03 06:29:29;;;;;;;3.33;2.50;;;8.40;99.90;;;;;;4899276;29;20517;-73
2024/04/03 06:31:54;;;;;;;4.85;2.83;;;8.50;99.90;;;;;;4900060;29;20036;-72
2024/04/03 06:34:20;;;;;;;3.63;2.63;;;8.50;99.90;;;;;;4899062;29;20055;-73
2024/04/03 06:36:46;;;;;;;3.30;2.20;;;8.50;99.90;;;;;;4898846;29;20501;-73
2024/04/03 06:39:11;;;;;;;5.45;2.28;;;8.50;99.90;;;;;;4899065;29;20060;-73
2024/04/03 06:41:37;;;;;;;3.40;2.05;;;8.40;99.90;;;;;;4896154;29;20518;-73
2024/04/03 06:44:03;;;;;;;4.90;2.38;;;8.50;99.90;;;;;;4899959;29;20029;-73
2024/04/03 06:46:28;;;;;;;4.10;2.40;;;8.40;99.90;;;;;;4900312;29;20021;-73
2024/04/03 06:48:54;;;;;;;5.45;2.10;;;8.40;99.90;;;;;;4897581;29;20032;-73
2024/04/03 06:51:20;;;;;;;7.30;2.25;;;8.50;99.90;;;;;;4899251;29;20032;-73
2024/04/03 06:53:48;;;;;;;4.25;2.53;;;8.50;99.90;;;;;;4897786;29;20069;-73
2024/04/03 06:56:13;;;;;;;4.53;2.50;;;8.60;99.90;;;;;;4898089;29;20048;-73
2024/04/03 06:58:41;;;;;;;5.43;2.50;;;8.60;99.90;;;;;;4890341;29;20115;-74
2024/04/03 07:01:08;;;;;;;4.25;2.22;;;8.70;99.90;;;;;;4898890;29;20037;-73
2024/04/03 07:03:34;;;;;;;5.20;2.20;;;8.70;99.90;;;;;;4898759;29;20368;-73
2024/04/03 07:06:00;;;;;;;4.95;2.85;;;8.70;99.50;;;;;;4899402;29;20040;-72
2024/04/03 07:08:26;;;;;;;2.53;2.15;;;8.90;98.50;;;;;;4899200;29;20059;-73
2024/04/03 07:10:52;;;;;;;5.00;2.63;;;8.90;96.40;;;;;;4898656;29;20016;-73
2024/04/03 07:13:17;;;;;;;2.70;2.20;;;9.10;98.30;;;;;;4899176;29;20103;-74
2024/04/03 07:15:50;;;;;;;7.93;2.05;;;9.20;97.00;;;;;;4898036;29;20064;-73
2024/04/03 07:18:17;;;;;;;5.38;2.25;;;9.20;93.20;;;;;;4898967;29;20032;-73
2024/04/03 07:20:55;;;;;;;3.67;2.22;;;9.30;92.00;;;;;;4898451;29;20232;-73
2024/04/03 07:23:27;;;;;;;5.70;2.47;;;9.40;91.40;;;;;;4886634;29;20068;-73
2024/04/03 07:25:53;;;;;;;4.18;2.25;;;9.30;89.70;;;;;;4897399;29;20043;-73
2024/04/03 07:28:19;;;;;;;4.88;2.53;;;9.40;89.70;;;;;;4895027;29;20144;-74
2024/04/03 07:30:45;;;;;;;4.85;2.10;;;9.40;90.80;;;;;;4898676;29;20044;-73
2024/04/03 07:33:11;;;;;;;4.25;2.45;;;9.40;88.00;;;;;;4895080;29;20052;-73
2024/04/03 07:35:37;;;;;;;7.45;1.90;;;9.70;87.00;;;;;;4896940;29;20828;-73
2024/04/03 07:38:06;;;;;;;6.03;2.40;;;10.00;88.40;;;;;;4897666;29;20032;-73
2024/04/03 07:40:32;;;;;;;5.43;2.60;;;10.30;86.50;;;;;;4897307;29;20367;-73
2024/04/03 07:42:58;;;;;;;7.47;2.92;;;10.60;83.90;;;;;;4886846;29;20045;-74
2024/04/03 07:45:24;;;;;;;7.47;3.38;;;10.80;80.70;;;;;;4898245;29;20084;-73
2024/04/03 07:47:49;;;;;;;14.60;4.15;;;11.20;82.40;;;;;;4894744;29;20541;-72
2024/04/03 07:50:16;;;;;;;12.48;5.15;;;11.10;78.20;;;;;;4888365;29;20025;-73
2024/04/03 07:52:41;;;;;;;7.53;3.47;;;11.00;77.20;;;;;;4898774;29;20487;-72
2024/04/03 07:55:09;;;;;;;10.98;6.05;;;10.90;76.90;;;;;;4898431;29;20041;-73
2024/04/03 07:57:36;;;;;;;8.32;3.60;;;11.00;75.80;;;;;;4896193;29;20040;-73
2024/04/03 08:00:06;;;;;;;16.45;7.18;;;11.20;74.40;;;;;;4896515;29;20056;-73
2024/04/03 08:02:40;;;;;;;10.07;4.05;;;11.30;75.00;;;;;;4894213;29;20072;-73
2024/04/03 08:05:08;;;;;;;8.65;3.63;;;11.30;73.90;;;;;;4896831;29;20479;-72
2024/04/03 08:07:34;;;;;;;14.88;6.88;;;11.30;73.50;;;;;;4897123;29;20072;-73
2024/04/03 08:10:04;;;;;;;25.20;10.27;;;11.30;72.00;;;;;;4896543;29;20040;-73
2024/04/03 08:12:29;;;;;;;19.40;9.43;;;11.30;72.90;;;;;;4896029;29;20475;-73
2024/04/03 08:14:58;;;;;;;8.93;3.78;;;11.70;72.70;;;;;;4896565;29;20036;-72
2024/04/03 08:17:27;;;;;;;6.05;3.17;;;11.80;71.80;;;;;;4897069;29;20518;-73
2024/04/03 08:19:54;;;;;;;17.80;6.35;;;11.70;70.10;;;;;;4893069;29;20057;-73
2024/04/03 08:22:20;;;;;;;27.80;10.27;;;11.50;70.70;;;;;;4894836;29;20099;-73
2024/04/03 08:24:46;;;;;;;12.00;4.20;;;11.50;69.80;;;;;;4895208;29;20149;-73
2024/04/03 08:27:13;;;;;;;12.63;4.95;;;11.40;69.70;;;;;;4894183;29;20525;-72
2024/04/03 08:29:39;;;;;;;13.77;5.95;;;11.90;71.70;;;;;;4893500;29;20037;-73
2024/04/03 08:32:06;;;;;;;15.88;4.80;;;11.90;69.20;;;;;;4896874;29;20029;-73
2024/04/03 08:34:32;;;;;;;20.63;8.38;;;12.00;68.70;;;;;;4897278;29;20021;-73
2024/04/03 08:36:58;;;;;;;16.83;6.00;;;12.30;68.30;;;;;;4893823;29;20410;-73
2024/04/03 08:39:24;;;;;;;25.50;10.50;;;12.20;66.90;;;;;;4893612;29;20055;-73
2024/04/03 08:41:53;;;;;;;16.35;6.70;;;12.30;66.30;;;;;;4895139;29;20064;-73
2024/04/03 08:44:20;;;;;;;35.33;13.57;;;12.40;67.00;;;;;;4894964;29;20499;-73
2024/04/03 08:46:53;;;;;;;17.05;6.35;;;12.60;66.80;;;;;;4891449;29;20443;-73
2024/04/03 08:49:19;;;;;;;25.45;7.38;;;12.60;65.40;;;;;;4895194;29;20120;-73
2024/04/03 08:52:00;;;;;;;19.55;7.32;;;12.50;64.40;;;;;;4896065;29;20123;-73
2024/04/03 08:54:28;;;;;;;13.60;4.60;;;12.20;63.90;;;;;;4895485;29;20440;-74
2024/04/03 08:56:55;;;;;;;27.10;9.35;;;12.30;64.80;;;;;;4897296;29;20119;-73
2024/04/03 08:59:20;;;;;;;24.23;8.45;;;12.40;65.00;;;;;;4894808;29;20037;-73
2024/04/03 09:01:49;;;;;;;17.45;7.10;;;12.40;65.10;;;;;;4891267;29;20059;-73
2024/04/03 09:04:20;;;;;;;30.27;11.65;;;12.70;64.50;;;;;;4897621;29;20027;-73
2024/04/03 09:06:46;;;;;;;15.57;6.82;;;12.80;64.10;;;;;;4896796;29;20073;-73
2024/04/03 09:09:28;;;;;;;11.25;3.40;;;13.10;62.80;;;;;;4896958;29;20525;-73
2024/04/03 09:12:02;;;;;;;29.67;11.13;;;13.10;61.60;;;;;;4884213;29;20174;-74
2024/04/03 09:14:28;;;;;;;40.40;16.98;;;13.10;60.90;;;;;;4896963;29;20120;-73
2024/04/03 09:17:12;;;;;;;27.10;11.60;;;13.10;60.90;;;;;;4896626;29;20507;-73
2024/04/03 09:19:49;;;;;;;40.97;15.32;;;13.20;60.60;;;;;;4890677;29;20062;-73
2024/04/03 09:22:17;;;;;;;17.50;7.28;;;13.00;60.00;;;;;;4896066;29;20036;-72
2024/04/03 09:24:42;;;;;;;40.72;14.65;;;12.90;60.70;;;;;;4894725;29;20065;-73
2024/04/03 09:27:11;;;;;;;19.27;7.82;;;12.70;61.00;;;;;;4895548;29;20578;-73
2024/04/03 09:29:37;;;;;;;12.60;4.03;;;12.70;61.70;;;;;;4895546;29;20063;-73
2024/04/03 09:32:04;;;;;;;8.13;3.97;;;12.50;60.80;;;;;;4895178;29;20017;-74
2024/04/03 09:34:33;;;;;;;25.58;8.48;;;12.40;60.50;;;;;;4898249;29;20051;-74
2024/04/03 09:37:02;;;;;;;15.45;6.32;;;12.60;61.80;;;;;;4895648;29;20076;-74
2024/04/03 09:39:27;;;;;;;28.50;11.18;;;12.80;60.90;;;;;;4895188;29;20060;-73
2024/04/03 09:42:02;;;;;;;4.60;2.08;;;13.20;60.90;;;;;;4895747;29;20507;-74
2024/04/03 09:44:31;;;;;;;12.88;5.32;;;13.10;59.10;;;;;;4893218;29;20020;-72
2024/04/03 09:47:05;;;;;;;16.77;8.27;;;13.40;58.90;;;;;;4895150;29;20522;-71
2024/04/03 09:49:39;;;;;;;15.65;6.32;;;13.70;59.80;;;;;;4894823;29;20027;-72
2024/04/03 09:52:08;;;;;;;13.82;5.93;;;13.60;57.80;;;;;;4894192;29;20637;-72
2024/04/03 09:54:34;;;;;;;9.45;4.35;;;13.50;56.70;;;;;;4895571;29;20036;-72
2024/04/03 09:56:59;;;;;;;22.15;10.32;;;13.30;56.30;;;;;;4895705;29;20040;-72
2024/04/03 09:59:27;;;;;;;13.15;4.85;;;13.60;57.00;;;;;;4896134;29;20029;-72
2024/04/03 10:01:53;;;;;;;21.23;9.32;;;13.40;56.20;;;;;;4895588;29;20036;-71
2024/04/03 10:04:18;;;;;;;2.95;1.27;;;13.50;57.30;;;;;;4900089;29;20471;-72
2024/04/03 10:06:44;;;;;;;18.65;6.65;;;13.10;56.70;;;;;;4900181;29;20036;-72
2024/04/03 10:09:23;;;;;;;3.90;1.40;;;13.20;57.90;;;;;;4900137;29;20036;-71
2024/04/03 10:11:52;;;;;;;3.88;0.95;;;13.20;56.80;;;;;;4900522;29;20499;-72
2024/04/03 10:14:35;;;;;;;5.28;1.92;;;13.00;56.50;;;;;;4899823;29;20032;-71
2024/04/03 10:17:00;;;;;;;6.78;3.30;;;12.90;57.20;;;;;;4898196;29;20433;-72
2024/04/03 10:19:34;;;;;;;6.03;2.67;;;12.90;57.80;;;;;;4899857;29;20063;-71
2024/04/03 10:22:02;;;;;;;4.15;2.17;;;13.30;57.40;;;;;;4895395;29;20131;-71
2024/04/03 10:24:32;;;;;;;4.10;1.40;;;13.30;57.40;;;;;;4899727;29;20057;-71
2024/04/03 10:26:58;;;;;;;8.02;3.65;;;13.20;57.00;;;;;;4898635;29;20036;-71
2024/04/03 10:29:25;;;;;;;11.13;5.03;;;13.40;57.30;;;;;;4899435;29;20036;-71
2024/04/03 10:31:50;;;;;;;13.52;8.13;;;13.30;56.60;;;;;;4900971;29;20036;-71
2024/04/03 10:34:22;;;;;;;4.07;2.05;;;13.20;56.20;;;;;;4895711;29;20052;-70
2024/04/03 10:36:47;;;;;;;6.20;4.05;;;13.20;56.30;;;;;;4899815;29;20044;-74
2024/04/03 10:39:13;;;;;;;4.32;1.48;;;13.20;56.80;;;;;;4895573;29;20477;-73
2024/04/03 10:41:41;;;;;;;2.00;1.10;;;13.10;56.10;;;;;;4898973;29;20076;-73
2024/04/03 10:44:07;;;;;;;5.47;1.35;;;13.30;56.30;;;;;;4899262;29;20029;-74
2024/04/03 10:46:32;;;;;;;3.45;1.17;;;13.50;56.60;;;;;;4894442;29;20458;-73
2024/04/03 10:48:59;;;;;;;3.53;1.33;;;13.90;55.50;;;;;;4896984;29;20088;-74
2024/04/03 10:51:25;;;;;;;2.63;1.25;;;14.20;55.50;;;;;;4896695;29;20391;-73
2024/04/03 10:53:50;;;;;;;2.15;1.20;;;14.00;54.40;;;;;;4899211;29;20029;-75
2024/04/03 10:56:18;;;;;;;5.22;1.45;;;14.10;54.50;;;;;;4899517;29;20028;-74
2024/04/03 10:58:44;;;;;;;2.35;1.20;;;14.20;55.60;;;;;;4898312;29;20016;-72
2024/04/03 11:01:11;;;;;;;6.80;1.35;;;13.80;55.30;;;;;;4899758;29;20045;-74
2024/04/03 11:03:40;;;;;;;6.68;1.65;;;13.50;55.60;;;;;;4897766;29;20029;-74
2024/04/03 11:06:06;;;;;;;3.33;1.30;;;13.40;56.70;;;;;;4899361;29;20037;-74
2024/04/03 11:08:32;;;;;;;2.83;1.08;;;13.20;57.20;;;;;;4896944;29;20110;-74
2024/04/03 11:11:05;;;;;;;3.65;1.17;;;13.30;57.60;;;;;;4898671;29;20033;-75
2024/04/03 11:13:31;;;;;;;3.17;1.30;;;13.20;58.30;;;;;;4889277;29;20103;-75
2024/04/03 11:15:57;;;;;;;2.42;1.20;;;13.00;57.10;;;;;;4892706;29;20040;-74
2024/04/03 11:18:23;;;;;;;4.43;1.40;;;13.00;58.20;;;;;;4898481;29;20063;-74
2024/04/03 11:20:48;;;;;;;3.13;1.73;;;13.00;58.90;;;;;;4892478;29;20547;-75
2024/04/03 11:23:15;;;;;;;2.40;1.55;;;13.10;59.30;;;;;;4898921;29;20124;-75
2024/04/03 11:25:40;;;;;;;3.75;1.17;;;13.20;58.70;;;;;;4899196;29;20475;-75
2024/04/03 11:28:06;;;;;;;5.10;1.63;;;13.70;58.30;;;;;;4897401;29;20054;-72
2024/04/03 11:30:32;;;;;;;2.65;1.30;;;14.00;57.30;;;;;;4894840;29;20539;-74
2024/04/03 11:32:58;;;;;;;3.45;1.65;;;14.10;56.60;;;;;;4895493;29;20530;-74
2024/04/03 11:35:25;;;;;;;5.00;1.05;;;14.30;56.10;;;;;;4898119;29;20098;-74
2024/04/03 11:37:50;;;;;;;3.67;1.70;;;14.10;54.80;;;;;;4897495;29;20096;-75
2024/04/03 11:40:16;;;;;;;3.90;1.13;;;14.10;56.10;;;;;;4890749;29;20029;-74
2024/04/03 11:42:42;;;;;;;5.13;1.42;;;13.90;55.30;;;;;;4894541;29;20121;-74
2024/04/03 11:45:08;;;;;;;3.42;1.23;;;13.70;55.50;;;;;;4885963;29;20043;-75
2024/04/03 11:47:34;;;;;;;3.17;1.10;;;13.70;55.90;;;;;;4888317;29;20029;-72
2024/04/03 11:50:01;;;;;;;2.80;1.00;;;13.70;55.50;;;;;;4889244;29;20549;-74
2024/04/03 11:52:27;;;;;;;3.53;1.33;;;13.50;55.50;;;;;;4896244;29;20032;-74
2024/04/03 11:54:53;;;;;;;10.93;1.20;;;13.50;55.60;;;;;;4886132;29;20094;-72
2024/04/03 11:57:19;;;;;;;3.00;1.27;;;13.50;56.50;;;;;;4882748;29;20120;-73
2024/04/03 11:59:44;;;;;;;2.53;1.40;;;13.80;56.50;;;;;;4897556;29;20120;-74
2024/04/03 12:02:10;;;;;;;3.58;1.50;;;14.20;55.80;;;;;;4897376;29;20116;-74
2024/04/03 12:04:36;;;;;;;2.40;1.33;;;14.10;54.80;;;;;;4896360;29;20513;-75
2024/04/03 12:07:01;;;;;;;4.38;1.42;;;13.80;54.10;;;;;;4896059;29;20486;-71
2024/04/03 12:09:27;;;;;;;1.77;0.80;;;13.80;54.50;;;;;;4894566;29;20652;-71
2024/04/03 12:11:53;;;;;;;2.40;0.90;;;13.80;55.00;;;;;;4895924;29;20032;-71
2024/04/03 12:14:19;;;;;;;1.90;1.42;;;13.90;55.50;;;;;;4896782;29;20037;-75
2024/04/03 12:16:51;;;;;;;2.20;1.00;;;14.20;55.70;;;;;;4893571;29;20040;-74
2024/04/03 12:19:26;;;;;;;4.40;1.40;;;14.40;56.20;;;;;;4895725;29;20103;-72
2024/04/03 12:21:53;;;;;;;5.25;1.20;;;14.80;56.50;;;;;;4894893;29;20059;-75
2024/04/03 12:24:19;;;;;;;3.25;0.88;;;15.20;55.80;;;;;;4892770;29;20492;-75
2024/04/03 12:26:45;;;;;;;3.60;1.35;;;15.20;54.50;;;;;;4892072;29;20045;-74
2024/04/03 12:29:13;;;;;;;1.42;0.80;;;15.20;53.80;;;;;;4896708;29;20463;-75
2024/04/03 12:31:39;;;;;;;6.10;1.48;;;15.00;53.50;;;;;;4895470;29;20024;-74
2024/04/03 12:34:06;;;;;;;3.25;1.25;;;15.00;54.10;;;;;;4897390;29;20499;-75
2024/04/03 12:36:32;;;;;;;3.45;1.02;;;15.00;54.00;;;;;;4897024;29;20040;-75
2024/04/03 12:38:58;;;;;;;5.32;1.30;;;15.10;53.10;;;;;;4895750;29;20116;-74
2024/04/03 12:41:23;;;;;;;3.45;1.30;;;15.30;53.90;;;;;;4895883;29;20486;-74
2024/04/03 12:43:49;;;;;;;2.65;1.23;;;15.00;52.90;;;;;;4894977;29;20526;-75
2024/04/03 12:46:15;;;;;;;2.40;1.02;;;14.70;53.10;;;;;;4895837;29;20466;-73
2024/04/03 12:48:40;;;;;;;5.05;1.30;;;14.80;54.20;;;;;;4894803;29;20105;-74
2024/04/03 12:51:06;;;;;;;1.40;0.82;;;14.70;54.10;;;;;;4895106;29;20077;-74
2024/04/03 12:53:33;;;;;;;2.67;1.05;;;14.60;53.20;;;;;;4893097;29;20115;-73
2024/04/03 12:56:00;;;;;;;5.60;1.00;;;14.50;53.00;;;;;;4893623;29;20484;-74
2024/04/03 12:58:25;;;;;;;1.02;0.90;;;14.40;53.50;;;;;;4896595;29;20107;-74
2024/04/03 13:00:51;;;;;;;4.82;0.85;;;14.30;53.20;;;;;;4896073;29;20123;-73